• Join FlightAware (Why Join?)
  • Login
  • US Flag 
05:10AM EDT


 

Airport Tracker/Info


-or-


 

Live Flight TrackerFlight Track Log ✈ RAX1022 ✈ 08-May-2013 ✈ KPTK - KPWK

Flight Track Log - Related Links

Times and Time Zones

All times are in EDT time to prevent confusion due to time zone crossing. See the RAX1022 flight status page for this flight to view local times or setup timezone preferences in your user account.

Time Position Orientation Groundspeed Altitude Reporting Facility
EDT Latitude Longitude Course Direction KTS MPH feet Rate Location/Type
11:13PM 42.6675 -83.4042 270° West 111 128 1,600  Level Cleveland Center
11:14PM 42.6661 -83.3731 93° East 107 123 2,400 1,020 Climbing Cleveland Center
11:15PM 42.6450 -83.3778 189° South 117 135 3,400 1,080 Climbing Cleveland Center
11:16PM 42.6211 -83.4217 234° Southwest 121 139 4,700 660 Climbing Cleveland Center
11:17PM 42.6053 -83.4692 246° West 165 190 5,000 240 Climbing Cleveland Center
11:18PM 42.6019 -83.5253 265° West 182 209 5,200 600 Climbing Cleveland Center
11:19PM 42.6333 -83.7835 270° West  Level FlightAware Approximate
11:20PM 42.5953 -83.6378 265° West 151 174 6,900  Level Chicago Center
11:21PM 42.5925 -83.7061 267° West 151 174 7,700 540 Climbing Chicago Center
11:22PM 42.5881 -83.7636 264° West 153 176 8,000 120 Climbing Chicago Center
11:23PM 42.5850 -83.8322 267° West 176 203 8,000  Level Chicago Center
11:24PM 42.5803 -83.9006 265° West 182 209 8,000  Level Chicago Center
11:25PM 42.5742 -83.9714 263° West 188 216 8,000  Level Chicago Center
11:26PM 42.5703 -84.0414 266° West 188 216 8,100  Climbing Chicago Center
11:27PM 42.5650 -84.1117 264° West 188 216 8,100 -60 Level Chicago Center
11:28PM 42.5622 -84.1822 267° West 188 216 8,000 -60 Descending Chicago Center
11:29PM 42.5575 -84.2522 265° West 188 216 8,000  Level Chicago Center
11:30PM 42.5533 -84.3233 265° West 189 217 8,100  Climbing Chicago Center
11:31PM 42.5478 -84.3919 264° West 187 215 8,000  Descending Chicago Center
11:32PM 42.5408 -84.4761 264° West 187 215 8,100  Climbing Chicago Center
11:33PM 42.5344 -84.5456 263° West 187 215 8,000 -60 Descending Chicago Center
11:34PM 42.5278 -84.6133 262° West 184 212 8,000  Level Chicago Center
11:35PM 42.5233 -84.6836 265° West 186 214 8,000  Level Chicago Center
11:36PM 42.5153 -84.7508 261° West 183 211 8,000  Level Chicago Center
11:37PM 42.5114 -84.8203 266° West 185 213 8,000  Level Chicago Center
11:38PM 42.5064 -84.8903 264° West 187 215 8,000  Level Chicago Center
11:39PM 42.5008 -84.9597 264° West 186 214 8,100  Climbing Chicago Center
11:40PM 42.4961 -85.0306 265° West 187 215 8,000 -60 Descending Chicago Center
11:41PM 42.4900 -85.1006 263° West 188 216 8,000  Level Chicago Center
11:42PM 42.4842 -85.1739 264° West 193 222 8,100  Climbing Chicago Center
11:43PM 42.4806 -85.2447 266° West 192 221 8,100 -60 Level Chicago Center
11:44PM 42.4761 -85.3172 265° West 192 221 8,000  Descending Chicago Center
11:46PM 42.4711 -85.4006 265° West 187 215 8,100  Climbing Chicago Center
11:47PM 42.4675 -85.4706 266° West 186 214 8,100 -60 Level Chicago Center
11:48PM 42.4633 -85.5408 265° West 187 215 8,000 -60 Descending Chicago Center
11:49PM 42.4567 -85.6097 263° West 186 214 8,000  Level Chicago Center
11:50PM 42.4494 -85.6789 262° West 186 214 8,000  Level Chicago Center
11:51PM 42.4406 -85.7475 260° West 185 213 8,100  Climbing Chicago Center
11:52PM 42.4311 -85.8156 259° West 185 213 8,100  Level Chicago Center
11:53PM 42.4214 -85.8828 259° West 183 211 8,100 -60 Level Chicago Center
11:54PM 42.4153 -85.9528 263° West 185 213 8,000  Descending Chicago Center
11:55PM 42.4089 -86.0219 263° West 185 213 8,100  Climbing Chicago Center
11:56PM 42.4019 -86.0911 262° West 185 213 8,100 -60 Level Chicago Center
11:57PM 42.3961 -86.1603 264° West 184 212 8,000 -60 Descending Chicago Center
11:58PM 42.3903 -86.2297 264° West 186 214 8,000  Level Chicago Center
11:59PM 42.3839 -86.3006 263° West 189 217 8,100  Climbing Chicago Center
12:00AM 42.3778 -86.3681 263° West 184 212 8,100 -60 Level Chicago Center
12:01AM 42.3714 -86.4358 263° West 182 209 8,000  Descending Chicago Center
12:02AM 42.3647 -86.5033 262° West 180 207 8,100  Climbing Chicago Center
12:03AM 42.3567 -86.5839 262° West 180 207 8,100  Level Chicago Center
12:04AM 42.3506 -86.6503 263° West 180 207 8,100  Level Chicago Center
12:05AM 42.3442 -86.7164 263° West 177 204 8,100  Level Chicago Center
12:06AM 42.3392 -86.7842 264° West 180 207 8,100  Level Chicago Center
12:07AM 42.3331 -86.8500 263° West 177 204 8,100 -120 Level Chicago Center
12:08AM 42.3267 -86.9164 263° West 178 205 7,900 -420 Descending Chicago Center
12:09AM 42.3200 -86.9875 263° West 187 215 7,300 -600 Descending Chicago Center
12:10AM 42.3125 -87.0614 262° West 196 226 6,700 -720 Descending Chicago Center
12:11AM 42.3072 -87.1364 265° West 197 227 5,900 -720 Descending Chicago Center
12:12AM 42.3019 -87.2103 265° West 199 229 5,300 -540 Descending Chicago Center
12:13AM 42.2958 -87.2842 264° West 200 230 4,900 -180 Descending Chicago Center
12:14AM 42.2886 -87.3517 262° West 188 216 5,000  Climbing Chicago Center
12:15AM 42.2819 -87.4178 262° West 183 211 5,000  Level Chicago Center
12:16AM 42.2708 -87.4797 256° West 173 199 5,000  Level Chicago Center
12:17AM 42.2628 -87.5433 260° West 176 203 5,000 -480 Level Chicago Center
12:18AM 42.2544 -87.6264 262° West 185 213 4,100 -840 Descending Chicago Center
12:19AM 42.2481 -87.6967 263° West 189 217 3,400 -660 Descending Chicago Center
12:20AM 42.2422 -87.7656 263° West 187 215 2,800 -540 Descending Chicago Center
12:21AM 42.2300 -87.8333 256° West 189 217 2,400 -300 Descending Chicago Center
12:22AM 42.2081 -87.8889 242° Southwest 178 205 2,300 -360 Descending Chicago Center
12:23AM 42.1897 -87.9292 238° Southwest 160 184 1,700 -600 Descending Chicago Center
12:24AM 42.1581 -87.9267 177° South 135 155 1,200 -420 Descending Chicago Center
12:25AM 42.1300 -87.9114 158° South 113 130 900 -240 Descending Chicago Center
12:26AM 42.1033 -87.8975 159° South 110 127 800 -120 Descending Chicago Center